createdAt,value
2023-05-03T00:05:01.001Z,5.83
2023-05-03T00:10:04.384Z,5.42
2023-05-03T00:15:08.987Z,5.13
2023-05-03T00:20:13.344Z,5.64
2023-05-03T00:25:16.255Z,5.69
2023-05-03T00:30:19.396Z,5.48
2023-05-03T00:35:23.925Z,4.87
2023-05-03T00:40:27.015Z,4.97
2023-05-03T00:45:31.652Z,5.39
2023-05-03T00:50:37.941Z,5.21
2023-05-03T00:55:41.042Z,5.49
2023-05-03T01:00:43.774Z,5.42
2023-05-03T01:05:53.064Z,5.44
2023-05-03T01:11:00.186Z,5.37
2023-05-03T01:16:07.492Z,5.38
2023-05-03T01:21:11.949Z,5.30
2023-05-03T01:26:22.428Z,5.12
2023-05-03T01:31:31.032Z,5.26
2023-05-03T01:36:35.588Z,5.08
2023-05-03T01:41:41.643Z,5.01
2023-05-03T01:46:44.899Z,4.99
2023-05-03T01:51:47.675Z,5.16
2023-05-03T01:56:51.954Z,4.99
2023-05-03T02:01:54.656Z,4.98
2023-05-03T02:06:57.349Z,4.87
2023-05-03T02:12:01.465Z,4.70
2023-05-03T02:17:04.625Z,4.65
2023-05-03T02:22:07.422Z,4.72
2023-05-03T02:27:11.481Z,4.56
2023-05-03T02:32:15.039Z,4.35
2023-05-03T02:37:21.110Z,4.40
2023-05-03T02:42:25.907Z,4.43
2023-05-03T02:47:28.586Z,4.50
2023-05-03T02:52:31.344Z,4.36
2023-05-03T02:57:35.477Z,4.12
2023-05-03T03:02:40.154Z,4.03
2023-05-03T03:07:43.350Z,4.12
2023-05-03T03:12:47.451Z,4.04
2023-05-03T03:17:58.974Z,4.06
2023-05-03T03:23:02.414Z,4.04
2023-05-03T03:28:06.702Z,4.13
2023-05-03T03:33:11.368Z,4.12
2023-05-03T03:38:16.882Z,4.10
2023-05-03T03:43:28.664Z,3.96
2023-05-03T03:48:32.452Z,3.93
2023-05-03T03:53:35.359Z,3.89
2023-05-03T03:58:39.494Z,3.91
2023-05-03T04:03:47.278Z,3.87
2023-05-03T04:08:50.595Z,3.89
2023-05-03T04:13:55.308Z,3.89
2023-05-03T04:18:58.453Z,3.82
2023-05-03T04:24:05.816Z,3.81
2023-05-03T04:29:10.865Z,3.97
2023-05-03T04:34:15.719Z,4.06
2023-05-03T04:39:22.023Z,4.22
2023-05-03T04:44:26.232Z,4.27
2023-05-03T04:49:29.619Z,4.49
2023-05-03T04:54:34.403Z,4.53
2023-05-03T04:59:38.661Z,4.42
2023-05-03T05:04:41.478Z,4.44
2023-05-03T05:09:45.307Z,4.80
2023-05-03T05:14:49.902Z,4.61
2023-05-03T05:19:52.734Z,4.72
2023-05-03T05:24:55.570Z,4.77
2023-05-03T05:30:01.227Z,4.99
2023-05-03T05:35:05.500Z,5.00
2023-05-03T05:40:09.759Z,5.18
2023-05-03T05:45:19.576Z,5.30
2023-05-03T05:50:22.763Z,5.60
2023-05-03T05:55:33.208Z,5.80
2023-05-03T06:00:38.188Z,6.19
2023-05-03T06:05:41.150Z,6.20
2023-05-03T06:10:46.109Z,6.39
2023-05-03T06:15:50.308Z,6.53
2023-05-03T06:20:53.857Z,6.64
2023-05-03T06:25:57.456Z,6.71
2023-05-03T06:31:02.355Z,6.96
2023-05-03T06:36:09.254Z,6.85
2023-05-03T06:41:13.419Z,7.18
2023-05-03T06:46:20.221Z,7.50
2023-05-03T06:51:27.367Z,7.44
2023-05-03T06:56:30.122Z,7.67
2023-05-03T07:01:34.220Z,7.87
2023-05-03T07:06:48.219Z,7.85
2023-05-03T07:11:58.450Z,8.25
2023-05-03T07:17:02.673Z,8.91
2023-05-03T07:22:05.799Z,8.85
2023-05-03T07:27:08.777Z,9.08
2023-05-03T07:32:13.207Z,9.26
2023-05-03T07:37:16.272Z,9.69
2023-05-03T07:42:18.978Z,9.32
2023-05-03T07:47:23.026Z,9.17
2023-05-03T07:52:25.738Z,9.19
2023-05-03T07:57:28.439Z,9.43
2023-05-03T08:02:32.560Z,9.60
2023-05-03T08:07:35.529Z,9.67
2023-05-03T08:12:38.215Z,9.94
2023-05-03T08:17:43.370Z,10.08
2023-05-03T08:22:46.740Z,10.19
2023-05-03T08:27:49.537Z,10.17
2023-05-03T08:32:54.615Z,9.96
2023-05-03T08:37:57.329Z,10.34
2023-05-03T08:43:00.749Z,10.35
2023-05-03T08:48:05.440Z,10.57
2023-05-03T08:53:08.144Z,10.63
2023-05-03T08:58:12.852Z,10.96
2023-05-03T09:03:17.455Z,10.83
2023-05-03T09:08:22.693Z,10.98
2023-05-03T09:13:31.870Z,10.16
2023-05-03T09:18:35.993Z,10.86
2023-05-03T09:23:38.756Z,11.16
2023-05-03T09:28:42.262Z,10.91
2023-05-03T09:33:46.301Z,11.07
2023-05-03T09:38:49.303Z,11.16
2023-05-03T09:43:55.441Z,11.54
2023-05-03T09:48:59.573Z,11.82
2023-05-03T09:54:03.465Z,11.80
2023-05-03T09:59:07.407Z,12.17
2023-05-03T10:04:11.759Z,12.06
2023-05-03T10:09:20.785Z,12.65
2023-05-03T10:14:24.336Z,12.60
2023-05-03T10:19:32.265Z,12.13
2023-05-03T10:24:35.326Z,12.76
2023-05-03T10:29:49.579Z,13.11
2023-05-03T10:34:57.993Z,12.85
2023-05-03T10:40:07.191Z,13.08
2023-05-03T10:45:12.555Z,13.09
2023-05-03T10:50:32.065Z,13.54
2023-05-03T10:55:35.290Z,13.51
2023-05-03T11:00:40.441Z,14.27
2023-05-03T11:05:44.578Z,13.73
2023-05-03T11:10:49.272Z,13.22
2023-05-03T11:15:54.207Z,14.52
2023-05-03T11:20:58.420Z,14.08
2023-05-03T11:26:01.139Z,14.87
2023-05-03T11:31:06.437Z,14.94
2023-05-03T11:36:11.005Z,14.11
2023-05-03T11:41:16.163Z,14.16
2023-05-03T11:46:21.560Z,15.09
2023-05-03T11:51:27.158Z,15.67
2023-05-03T11:56:31.400Z,14.13
2023-05-03T12:01:34.208Z,15.51
2023-05-03T12:06:39.850Z,14.98
2023-05-03T12:11:44.829Z,15.45
2023-05-03T12:16:50.881Z,15.88
2023-05-03T12:22:17.821Z,16.45
2023-05-03T12:27:19.479Z,15.31
2023-05-03T12:32:23.271Z,16.03
2023-05-03T12:37:27.872Z,15.45
2023-05-03T12:42:33.797Z,15.95
2023-05-03T12:47:38.020Z,15.59
2023-05-03T12:52:45.438Z,16.36
2023-05-03T12:57:55.291Z,16.28
2023-05-03T13:03:20.740Z,16.75
2023-05-03T13:08:33.589Z,16.07
2023-05-03T13:13:37.437Z,14.54
2023-05-03T13:18:40.162Z,17.15
2023-05-03T13:23:44.481Z,16.76
2023-05-03T13:28:47.885Z,17.05
2023-05-03T13:33:53.998Z,16.71
2023-05-03T13:38:58.074Z,17.22
2023-05-03T13:44:00.966Z,16.14
2023-05-03T13:49:05.359Z,16.51
2023-05-03T13:54:09.541Z,16.41
2023-05-03T13:59:14.883Z,16.75
2023-05-03T14:04:17.671Z,16.92
2023-05-03T14:09:21.841Z,16.88
2023-05-03T14:14:27.550Z,15.74
2023-05-03T14:19:30.253Z,16.81
2023-05-03T14:24:34.301Z,16.89
2023-05-03T14:29:36.996Z,16.90
2023-05-03T14:34:39.754Z,16.80
2023-05-03T14:39:43.805Z,16.58
2023-05-03T14:44:46.695Z,16.53
2023-05-03T14:49:49.368Z,17.02
2023-05-03T14:54:54.455Z,16.86
2023-05-03T14:59:57.354Z,16.52
2023-05-03T15:05:00.155Z,16.52
2023-05-03T15:10:04.844Z,16.83
2023-05-03T15:15:09.583Z,16.85
2023-05-03T15:20:15.282Z,16.48
2023-05-03T15:25:19.311Z,16.75
2023-05-03T15:30:22.022Z,16.54
2023-05-03T15:35:24.678Z,16.74
2023-05-03T15:40:29.059Z,16.49
2023-05-03T15:45:31.775Z,16.80
2023-05-03T15:50:34.756Z,16.13
2023-05-03T15:55:39.006Z,16.58
2023-05-03T16:00:42.167Z,16.56
2023-05-03T16:05:44.928Z,16.47
2023-05-03T16:10:49.029Z,16.49
2023-05-03T16:15:52.921Z,16.23
2023-05-03T16:20:55.733Z,16.41
2023-05-03T16:25:59.783Z,16.23
2023-05-03T16:31:02.459Z,16.36
2023-05-03T16:36:05.545Z,16.32
2023-05-03T16:41:09.567Z,16.07
2023-05-03T16:46:12.564Z,15.40
2023-05-03T16:51:15.343Z,16.00
2023-05-03T16:56:19.342Z,16.07
2023-05-03T17:01:22.568Z,15.63
2023-05-03T17:06:25.276Z,15.74
2023-05-03T17:11:29.779Z,15.81
2023-05-03T17:16:32.530Z,15.65
2023-05-03T17:21:53.173Z,15.59
2023-05-03T17:27:16.844Z,15.29
2023-05-03T17:32:28.306Z,15.14
2023-05-03T17:37:37.970Z,15.22
2023-05-03T17:42:53.945Z,15.36
2023-05-03T17:48:32.662Z,15.13
2023-05-03T17:53:43.792Z,15.08
2023-05-03T17:59:04.802Z,14.81
2023-05-03T18:04:18.061Z,14.99
2023-05-03T18:09:33.913Z,14.77
2023-05-03T18:14:50.778Z,14.60
2023-05-03T18:19:59.723Z,14.59
2023-05-03T18:25:14.080Z,14.40
2023-05-03T18:30:30.099Z,14.16
2023-05-03T18:35:41.390Z,13.94
2023-05-03T18:41:05.074Z,13.89
2023-05-03T18:46:48.075Z,13.84
2023-05-03T18:52:09.152Z,13.65
2023-05-03T18:57:33.931Z,13.54
2023-05-03T19:02:45.655Z,13.46
2023-05-03T19:08:16.017Z,13.16
2023-05-03T19:13:27.645Z,13.06
2023-05-03T19:18:44.156Z,13.06
2023-05-03T19:23:56.034Z,12.96
2023-05-03T19:29:02.906Z,12.67
2023-05-03T19:34:14.868Z,12.59
2023-05-03T19:39:27.002Z,12.49
2023-05-03T19:44:31.170Z,12.49
2023-05-03T19:49:43.546Z,12.35
2023-05-03T19:55:01.596Z,12.33
2023-05-03T20:00:24.364Z,12.12
2023-05-03T20:05:59.623Z,12.10
2023-05-03T20:11:10.421Z,12.14
2023-05-03T20:16:22.169Z,11.85
2023-05-03T20:21:44.835Z,11.99
2023-05-03T20:26:50.713Z,11.79
2023-05-03T20:32:05.298Z,11.82
2023-05-03T20:37:20.498Z,11.73
2023-05-03T20:42:41.116Z,11.59
2023-05-03T20:47:49.379Z,11.60
2023-05-03T20:53:27.705Z,11.38
2023-05-03T20:59:12.129Z,11.26
2023-05-03T21:04:30.437Z,11.17
2023-05-03T21:09:34.840Z,11.18
2023-05-03T21:14:37.879Z,11.17
2023-05-03T21:19:40.669Z,11.02
2023-05-03T21:24:44.717Z,10.96
2023-05-03T21:29:47.380Z,10.86
2023-05-03T21:34:50.349Z,10.59
2023-05-03T21:40:01.374Z,10.68
2023-05-03T21:45:05.113Z,10.72
2023-05-03T21:50:08.938Z,10.51
2023-05-03T21:55:13.180Z,10.38
2023-05-03T22:00:19.839Z,10.35
2023-05-03T22:05:22.581Z,10.34
2023-05-03T22:10:27.382Z,10.35
2023-05-03T22:15:31.981Z,10.15
2023-05-03T22:20:34.707Z,10.18
2023-05-03T22:25:38.776Z,10.08
2023-05-03T22:30:41.694Z,9.92
2023-05-03T22:35:44.501Z,9.88
2023-05-03T22:40:48.542Z,9.80
2023-05-03T22:45:51.260Z,9.84
2023-05-03T22:50:53.967Z,9.76
2023-05-03T22:55:58.671Z,9.79
2023-05-03T23:01:01.575Z,9.50
2023-05-03T23:06:04.615Z,9.67
2023-05-03T23:11:09.254Z,9.55
2023-05-03T23:16:12.380Z,9.40
2023-05-03T23:21:15.117Z,9.47
2023-05-03T23:26:19.949Z,9.19
2023-05-03T23:31:23.035Z,9.24
2023-05-03T23:36:26.159Z,9.19
2023-05-03T23:41:30.213Z,9.26
2023-05-03T23:46:33.731Z,9.21
2023-05-03T23:51:36.511Z,9.22
2023-05-03T23:56:40.530Z,9.15
